createdAt,value
2023-03-27T00:00:18.113Z,1.40
2023-03-27T00:03:21.740Z,1.30
2023-03-27T00:06:27.281Z,1.33
2023-03-27T00:09:32.819Z,1.30
2023-03-27T00:12:36.009Z,1.40
2023-03-27T00:15:40.936Z,1.70
2023-03-27T00:18:45.182Z,1.87
2023-03-27T00:21:48.790Z,2.00
2023-03-27T00:24:53.399Z,1.80
2023-03-27T00:27:58.563Z,1.90
2023-03-27T00:31:02.099Z,2.97
2023-03-27T00:34:06.178Z,2.37
2023-03-27T00:37:09.362Z,2.53
2023-03-27T00:40:17.796Z,2.60
2023-03-27T00:43:26.217Z,2.30
2023-03-27T00:46:36.324Z,3.33
2023-03-27T00:49:40.531Z,2.70
2023-03-27T00:52:47.990Z,2.87
2023-03-27T00:55:56.444Z,2.50
2023-03-27T00:59:03.228Z,2.20
2023-03-27T01:02:07.765Z,1.83
2023-03-27T01:05:12.312Z,2.07
2023-03-27T01:08:16.605Z,1.87
2023-03-27T01:11:35.136Z,1.87
2023-03-27T01:14:43.836Z,1.90
2023-03-27T01:18:00.863Z,1.30
2023-03-27T01:21:29.244Z,1.60
2023-03-27T01:24:57.281Z,1.40
2023-03-27T01:28:23.119Z,1.40
2023-03-27T01:31:40.811Z,1.50
2023-03-27T01:35:03.385Z,2.00
2023-03-27T01:38:39.964Z,1.90
2023-03-27T01:41:51.876Z,2.00
2023-03-27T01:45:03.486Z,2.47
2023-03-27T01:48:12.505Z,2.40
2023-03-27T01:51:21.361Z,3.07
2023-03-27T01:54:28.174Z,3.27
2023-03-27T01:57:48.721Z,2.80
2023-03-27T02:00:57.143Z,3.10
2023-03-27T02:04:04.116Z,2.57
2023-03-27T02:07:13.026Z,3.30
2023-03-27T02:10:22.406Z,3.43
2023-03-27T02:13:30.838Z,3.90
2023-03-27T02:16:41.400Z,3.70
2023-03-27T02:19:50.610Z,3.70
2023-03-27T02:22:53.901Z,9.30
2023-03-27T02:25:57.271Z,3.80
2023-03-27T02:29:16.842Z,3.43
2023-03-27T02:32:29.839Z,2.77
2023-03-27T02:35:41.234Z,5.30
2023-03-27T02:38:51.629Z,2.70
2023-03-27T02:42:03.484Z,2.50
2023-03-27T02:45:15.557Z,2.93
2023-03-27T02:48:24.141Z,2.97
2023-03-27T02:51:30.697Z,2.70
2023-03-27T02:54:37.012Z,2.20
2023-03-27T02:57:40.715Z,2.30
2023-03-27T03:00:57.572Z,2.17
2023-03-27T03:04:04.972Z,2.23
2023-03-27T03:07:08.411Z,1.70
2023-03-27T03:10:12.692Z,1.50
2023-03-27T03:13:16.527Z,1.90
2023-03-27T03:16:21.240Z,1.53
2023-03-27T03:19:25.143Z,1.70
2023-03-27T03:22:28.443Z,1.20
2023-03-27T03:25:31.782Z,1.10
2023-03-27T03:28:36.028Z,0.90
2023-03-27T03:31:46.367Z,0.80
2023-03-27T03:34:50.211Z,1.37
2023-03-27T03:37:53.900Z,0.83
2023-03-27T03:40:58.688Z,0.90
2023-03-27T03:44:02.248Z,0.80
2023-03-27T03:47:07.247Z,0.70
2023-03-27T03:50:11.608Z,0.70
2023-03-27T03:53:15.444Z,0.73
2023-03-27T03:56:19.389Z,0.70
2023-03-27T03:59:22.648Z,0.70
2023-03-27T04:02:30.068Z,0.63
2023-03-27T04:05:34.052Z,0.70
2023-03-27T04:08:37.279Z,0.80
2023-03-27T04:11:40.484Z,0.67
2023-03-27T04:14:43.902Z,0.50
2023-03-27T04:17:49.050Z,0.50
2023-03-27T04:20:54.486Z,0.50
2023-03-27T04:24:02.366Z,0.60
2023-03-27T04:27:05.944Z,0.53
2023-03-27T04:30:10.626Z,0.60
2023-03-27T04:33:18.543Z,0.60
2023-03-27T04:36:22.623Z,0.50
2023-03-27T04:39:26.472Z,0.60
2023-03-27T04:42:29.710Z,0.50
2023-03-27T04:45:33.796Z,0.63
2023-03-27T04:48:39.348Z,0.60
2023-03-27T04:51:43.031Z,1.50
2023-03-27T04:54:46.708Z,1.87
2023-03-27T04:57:49.888Z,1.50
2023-03-27T05:00:56.439Z,2.30
2023-03-27T05:04:02.571Z,1.43
2023-03-27T05:07:05.996Z,2.20
2023-03-27T05:10:10.313Z,1.77
2023-03-27T05:13:13.534Z,1.53
2023-03-27T05:16:17.697Z,1.30
2023-03-27T05:19:22.568Z,1.53
2023-03-27T05:22:26.568Z,1.40
2023-03-27T05:25:30.933Z,1.10
2023-03-27T05:28:34.420Z,1.60
2023-03-27T05:31:37.710Z,2.47
2023-03-27T05:34:42.483Z,2.20
2023-03-27T05:37:49.356Z,1.73
2023-03-27T05:40:52.635Z,2.00
2023-03-27T05:43:56.063Z,2.10
2023-03-27T05:46:59.531Z,1.80
2023-03-27T05:50:04.134Z,2.10
2023-03-27T05:53:10.345Z,1.87
2023-03-27T05:56:14.084Z,2.83
2023-03-27T05:59:17.856Z,2.07
2023-03-27T06:02:22.021Z,2.87
2023-03-27T06:05:29.330Z,2.13
2023-03-27T06:08:32.550Z,2.40
2023-03-27T06:11:35.730Z,2.03
2023-03-27T06:14:39.521Z,2.13
2023-03-27T06:17:48.412Z,2.80
2023-03-27T06:20:53.043Z,2.10
2023-03-27T06:23:56.778Z,1.70
2023-03-27T06:26:59.974Z,1.97
2023-03-27T06:30:03.312Z,1.83
2023-03-27T06:33:07.718Z,1.70
2023-03-27T06:36:12.920Z,2.13
2023-03-27T06:39:16.204Z,1.80
2023-03-27T06:42:19.531Z,1.57
2023-03-27T06:45:23.576Z,2.10
2023-03-27T06:57:13.753Z,2.33
2023-03-27T07:00:19.687Z,2.60
2023-03-27T07:03:24.163Z,1.93
2023-03-27T07:06:27.299Z,1.70
2023-03-27T07:09:30.473Z,2.30
2023-03-27T07:12:35.046Z,2.00
2023-03-27T07:15:38.234Z,1.70
2023-03-27T07:18:42.485Z,2.30
2023-03-27T07:21:45.650Z,1.83
2023-03-27T07:24:48.838Z,1.90
2023-03-27T07:27:53.438Z,3.17
2023-03-27T07:30:56.852Z,1.70
2023-03-27T07:34:01.739Z,1.77
2023-03-27T07:37:05.299Z,1.50
2023-03-27T07:40:13.313Z,1.70
2023-03-27T07:43:17.898Z,1.57
2023-03-27T07:46:22.516Z,1.90
2023-03-27T07:49:39.356Z,2.50
2023-03-27T07:52:46.080Z,1.97
2023-03-27T07:55:50.370Z,2.07
2023-03-27T07:58:55.318Z,2.23
2023-03-27T08:01:58.474Z,1.80
2023-03-27T08:05:05.329Z,1.30
2023-03-27T08:08:09.114Z,1.60
2023-03-27T08:11:23.146Z,2.20
2023-03-27T08:14:34.531Z,2.50
2023-03-27T08:17:38.051Z,2.70
2023-03-27T08:20:42.498Z,3.60
2023-03-27T08:23:45.750Z,1.97
2023-03-27T08:26:49.431Z,1.70
2023-03-27T08:29:53.983Z,2.60
2023-03-27T08:32:57.222Z,2.20
2023-03-27T08:36:00.520Z,2.23
2023-03-27T08:39:04.107Z,2.13
2023-03-27T08:42:09.762Z,2.20
2023-03-27T08:45:21.537Z,2.07
2023-03-27T08:48:30.497Z,1.63
2023-03-27T08:51:38.579Z,2.00
2023-03-27T08:54:43.594Z,1.80
2023-03-27T08:57:46.937Z,1.90
2023-03-27T09:00:57.497Z,1.60
2023-03-27T09:04:07.487Z,1.73
2023-03-27T09:07:17.158Z,1.60
2023-03-27T09:10:27.325Z,1.27
2023-03-27T09:13:34.960Z,0.70
2023-03-27T09:16:48.877Z,0.77
2023-03-27T09:19:57.325Z,0.73
2023-03-27T09:23:05.668Z,0.70
2023-03-27T09:26:13.273Z,0.30
2023-03-27T09:29:20.715Z,0.40
2023-03-27T09:32:25.682Z,0.47
2023-03-27T09:35:28.978Z,0.30
2023-03-27T09:38:36.400Z,0.30
2023-03-27T09:41:44.018Z,0.40
2023-03-27T09:44:50.677Z,0.30
2023-03-27T09:47:59.648Z,0.53
2023-03-27T09:51:03.112Z,0.50
2023-03-27T09:54:07.549Z,0.40
2023-03-27T09:57:12.809Z,0.40
2023-03-27T10:00:29.316Z,0.40
2023-03-27T10:03:38.951Z,0.50
2023-03-27T10:06:47.469Z,0.20
2023-03-27T10:10:08.313Z,0.40
2023-03-27T10:13:14.235Z,0.30
2023-03-27T10:16:19.478Z,0.50
2023-03-27T10:19:28.900Z,0.50
2023-03-27T10:22:37.262Z,0.50
2023-03-27T10:25:46.540Z,0.30
2023-03-27T10:28:52.718Z,0.20
2023-03-27T10:31:59.069Z,0.30
2023-03-27T10:35:05.398Z,0.40
2023-03-27T10:38:14.231Z,0.40
2023-03-27T10:41:28.075Z,0.33
2023-03-27T10:44:32.287Z,0.47
2023-03-27T10:47:36.011Z,0.30
2023-03-27T10:50:47.403Z,0.40
2023-03-27T10:53:56.410Z,0.30
2023-03-27T10:57:03.635Z,0.30
2023-03-27T11:00:18.351Z,0.30
2023-03-27T11:03:29.570Z,0.30
2023-03-27T11:06:41.841Z,0.37
2023-03-27T11:09:59.073Z,0.30
2023-03-27T11:13:10.118Z,0.50
2023-03-27T11:16:17.919Z,0.40
2023-03-27T11:19:35.009Z,0.30
2023-03-27T11:22:44.098Z,0.30
2023-03-27T11:25:51.696Z,0.20
2023-03-27T11:28:59.600Z,0.30
2023-03-27T11:32:08.829Z,0.30
2023-03-27T11:35:14.936Z,0.30
2023-03-27T11:38:24.757Z,0.60
2023-03-27T11:41:27.982Z,0.40
2023-03-27T11:44:31.220Z,0.30
2023-03-27T11:47:55.935Z,0.40
2023-03-27T11:51:07.000Z,0.20
2023-03-27T11:54:27.108Z,0.20
2023-03-27T11:57:30.250Z,0.20
2023-03-27T12:00:37.006Z,0.30
2023-03-27T12:04:13.616Z,0.30
2023-03-27T12:07:35.294Z,0.30
2023-03-27T12:10:43.521Z,0.40
2023-03-27T12:14:31.029Z,0.30
2023-03-27T12:17:52.664Z,0.37
2023-03-27T12:21:13.681Z,0.30
2023-03-27T12:24:49.844Z,0.33
2023-03-27T12:28:22.906Z,0.30
2023-03-27T12:31:41.884Z,0.30
2023-03-27T12:34:54.451Z,0.30
2023-03-27T12:38:01.618Z,0.20
2023-03-27T12:41:13.889Z,0.30
2023-03-27T12:44:21.657Z,0.20
2023-03-27T12:47:27.292Z,0.27
2023-03-27T12:50:35.362Z,0.40
2023-03-27T12:53:55.665Z,0.30
2023-03-27T12:57:07.517Z,0.30
2023-03-27T13:00:22.228Z,0.33
2023-03-27T13:03:54.115Z,0.40
2023-03-27T13:07:05.189Z,0.30
2023-03-27T13:10:22.941Z,0.40
2023-03-27T13:14:10.634Z,0.43
2023-03-27T13:17:41.232Z,0.40
2023-03-27T13:20:48.982Z,0.30
2023-03-27T13:24:12.410Z,0.47
2023-03-27T13:27:32.340Z,0.37
2023-03-27T13:30:45.245Z,0.40
2023-03-27T13:34:14.196Z,0.43
2023-03-27T13:37:49.138Z,0.40
2023-03-27T13:40:52.353Z,0.37
2023-03-27T13:43:56.118Z,0.30
2023-03-27T13:47:11.148Z,0.43
2023-03-27T13:50:27.235Z,0.30
2023-03-27T13:53:47.547Z,0.60
2023-03-27T13:57:05.387Z,0.60
2023-03-27T14:00:41.538Z,0.50
2023-03-27T14:04:34.372Z,0.90
2023-03-27T14:08:00.894Z,0.70
2023-03-27T14:11:31.866Z,0.87
2023-03-27T14:14:47.927Z,0.70
2023-03-27T14:18:08.998Z,0.70
2023-03-27T14:21:24.521Z,0.73
2023-03-27T14:24:39.492Z,0.60
2023-03-27T14:27:45.488Z,0.70
2023-03-27T14:30:50.340Z,0.83
2023-03-27T14:33:58.171Z,0.70
2023-03-27T14:37:01.440Z,0.67
2023-03-27T14:40:22.994Z,0.90
2023-03-27T14:43:28.437Z,0.83
2023-03-27T14:46:32.609Z,0.80
2023-03-27T14:49:40.129Z,0.80
2023-03-27T14:52:43.998Z,0.80
2023-03-27T14:55:50.694Z,0.70
2023-03-27T14:58:57.174Z,1.10
2023-03-27T15:02:02.633Z,0.97
2023-03-27T15:05:12.167Z,0.70
2023-03-27T15:08:22.452Z,0.70
2023-03-27T15:11:33.433Z,0.80
2023-03-27T15:14:39.290Z,1.00
2023-03-27T15:17:44.840Z,1.03
2023-03-27T15:20:50.486Z,0.97
2023-03-27T15:24:00.960Z,0.70
2023-03-27T15:27:06.559Z,0.73
2023-03-27T15:30:25.749Z,0.90
2023-03-27T15:33:34.661Z,1.00
2023-03-27T15:36:39.327Z,0.80
2023-03-27T15:40:01.814Z,1.70
2023-03-27T15:43:21.355Z,1.20
2023-03-27T15:46:26.865Z,0.90
2023-03-27T15:49:33.082Z,0.93
2023-03-27T15:52:36.712Z,1.13
2023-03-27T15:55:42.432Z,1.13
2023-03-27T15:58:49.770Z,1.10
2023-03-27T16:01:56.294Z,0.93
2023-03-27T16:05:00.288Z,1.30
2023-03-27T16:08:03.970Z,0.80
2023-03-27T16:11:08.067Z,0.80
2023-03-27T16:14:28.442Z,1.00
2023-03-27T16:17:34.636Z,1.20
2023-03-27T16:20:40.767Z,1.33
2023-03-27T16:23:45.119Z,0.80
2023-03-27T16:26:48.840Z,1.10
2023-03-27T16:29:54.500Z,1.10
2023-03-27T16:32:57.832Z,1.30
2023-03-27T16:36:01.563Z,1.10
2023-03-27T16:39:06.841Z,1.53
2023-03-27T16:42:14.395Z,0.90
2023-03-27T16:45:19.461Z,1.03
2023-03-27T16:48:23.473Z,1.90
2023-03-27T16:51:28.888Z,1.30
2023-03-27T16:54:32.491Z,1.10
2023-03-27T16:57:37.016Z,1.40
2023-03-27T17:00:41.930Z,1.10
2023-03-27T17:03:46.119Z,1.10
2023-03-27T17:06:51.314Z,1.13
2023-03-27T17:09:58.536Z,2.00
2023-03-27T17:13:02.542Z,1.50
2023-03-27T17:16:09.064Z,1.17
2023-03-27T17:19:12.669Z,1.50
2023-03-27T17:22:16.736Z,1.20
2023-03-27T17:25:20.131Z,1.80
2023-03-27T17:28:24.494Z,0.83
2023-03-27T17:31:31.109Z,1.63
2023-03-27T17:34:35.580Z,1.67
2023-03-27T17:37:39.438Z,2.00
2023-03-27T17:40:44.914Z,2.77
2023-03-27T17:43:50.053Z,1.00
2023-03-27T17:46:55.532Z,1.30
2023-03-27T17:49:59.361Z,1.13
2023-03-27T17:53:04.275Z,1.00
2023-03-27T17:56:09.800Z,1.20
2023-03-27T17:59:14.009Z,1.40
2023-03-27T18:02:21.780Z,1.23
2023-03-27T18:05:26.164Z,1.20
2023-03-27T18:08:29.938Z,1.60
2023-03-27T18:11:33.661Z,1.20
2023-03-27T18:14:43.148Z,0.80
2023-03-27T18:17:50.444Z,1.10
2023-03-27T18:20:54.525Z,3.63
2023-03-27T18:24:01.119Z,4.50
2023-03-27T18:27:06.208Z,1.40
2023-03-27T18:30:12.718Z,1.27
2023-03-27T18:33:17.978Z,1.17
2023-03-27T18:36:22.987Z,1.33
2023-03-27T18:39:27.648Z,1.00
2023-03-27T18:42:39.942Z,1.03
2023-03-27T18:45:44.972Z,1.30
2023-03-27T18:48:51.913Z,2.57
2023-03-27T18:51:56.099Z,2.83
2023-03-27T18:55:00.746Z,2.73
2023-03-27T18:58:07.095Z,1.33
2023-03-27T19:01:11.653Z,1.23
2023-03-27T19:04:18.158Z,1.20
2023-03-27T19:07:23.284Z,1.10
2023-03-27T19:10:28.974Z,1.00
2023-03-27T19:13:33.918Z,1.30
2023-03-27T19:16:38.887Z,1.00
2023-03-27T19:19:46.584Z,1.10
2023-03-27T19:22:51.235Z,1.40
2023-03-27T19:25:57.000Z,1.20
2023-03-27T19:29:02.709Z,1.00
2023-03-27T19:32:07.104Z,1.03
2023-03-27T19:35:17.203Z,1.20
2023-03-27T19:38:21.647Z,1.30
2023-03-27T19:41:27.906Z,1.20
2023-03-27T19:44:32.217Z,1.10
2023-03-27T19:47:37.463Z,0.70
2023-03-27T19:50:44.450Z,1.40
2023-03-27T19:53:50.329Z,1.33
2023-03-27T19:56:55.125Z,1.30
2023-03-27T19:59:59.832Z,1.30
2023-03-27T20:03:04.713Z,1.10
2023-03-27T20:06:18.631Z,1.20
2023-03-27T20:09:23.768Z,1.33
2023-03-27T20:12:32.997Z,1.27
2023-03-27T20:15:40.616Z,1.43
2023-03-27T20:18:44.218Z,0.93
2023-03-27T20:21:50.021Z,1.80
2023-03-27T20:24:54.319Z,3.30
2023-03-27T20:27:58.488Z,2.40
2023-03-27T20:31:05.883Z,3.10
2023-03-27T20:34:11.549Z,1.67
2023-03-27T20:37:17.700Z,1.40
2023-03-27T20:40:23.393Z,1.43
2023-03-27T20:43:31.040Z,1.50
2023-03-27T20:46:34.683Z,2.27
2023-03-27T20:49:41.523Z,1.73
2023-03-27T20:52:46.722Z,1.57
2023-03-27T20:55:59.240Z,7.50
2023-03-27T20:59:03.423Z,2.00
2023-03-27T21:02:06.724Z,1.63
2023-03-27T21:05:11.100Z,1.60
2023-03-27T21:08:16.026Z,1.20
2023-03-27T21:11:19.231Z,1.47
2023-03-27T21:14:22.528Z,1.20
2023-03-27T21:17:25.764Z,1.30
2023-03-27T21:20:28.966Z,1.50
2023-03-27T21:23:34.636Z,1.70
2023-03-27T21:26:37.868Z,1.43
2023-03-27T21:29:40.994Z,1.57
2023-03-27T21:32:45.658Z,1.50
2023-03-27T21:35:49.808Z,1.30
2023-03-27T21:38:54.380Z,1.03
2023-03-27T21:41:57.560Z,1.50
2023-03-27T21:45:00.799Z,1.50
2023-03-27T21:48:04.752Z,1.20
2023-03-27T21:51:09.444Z,1.20
2023-03-27T21:54:14.011Z,1.40
2023-03-27T21:57:17.247Z,1.20
2023-03-27T22:00:21.193Z,1.27
2023-03-27T22:03:24.437Z,1.13
2023-03-27T22:06:28.904Z,1.37
2023-03-27T22:09:34.164Z,0.97
2023-03-27T22:12:38.075Z,1.67
2023-03-27T22:15:41.712Z,1.40
2023-03-27T22:18:45.394Z,1.70
2023-03-27T22:21:48.593Z,1.40
2023-03-27T22:24:53.325Z,1.30
2023-03-27T22:27:56.474Z,1.80
2023-03-27T22:30:59.669Z,1.80
2023-03-27T22:34:05.236Z,1.50
2023-03-27T22:37:08.434Z,1.40
2023-03-27T22:40:13.712Z,1.97
2023-03-27T22:43:23.323Z,2.00
2023-03-27T22:46:26.840Z,1.63
2023-03-27T22:49:30.065Z,1.60
2023-03-27T22:52:33.577Z,2.27
2023-03-27T22:55:38.372Z,1.60
2023-03-27T22:58:41.539Z,1.40
2023-03-27T23:01:44.851Z,1.00
2023-03-27T23:04:48.062Z,1.00
2023-03-27T23:07:51.297Z,0.90
2023-03-27T23:11:00.353Z,1.27
2023-03-27T23:14:03.541Z,1.00
2023-03-27T23:17:06.727Z,1.03
2023-03-27T23:20:10.434Z,1.40
2023-03-27T23:23:13.592Z,1.47
2023-03-27T23:26:18.536Z,1.80
2023-03-27T23:29:21.791Z,1.10
2023-03-27T23:32:24.945Z,1.57
2023-03-27T23:35:28.133Z,1.77
2023-03-27T23:38:31.336Z,7.03
2023-03-27T23:41:35.846Z,3.53
2023-03-27T23:44:39.035Z,1.27
2023-03-27T23:47:42.205Z,1.70
2023-03-27T23:50:45.422Z,1.70
2023-03-27T23:53:48.527Z,1.40
2023-03-27T23:56:53.123Z,1.37
2023-03-27T23:59:56.461Z,1.27
